Time;durP1;ratioP1;P1;durP2;ratioP2;P2;SDS_P1;SDS_P2;PMS_P1;PMS_P2;Temp;Humidity;BMP_temperature;BMP_pressure;BME280_temperature;BME280_humidity;BME280_pressure;Samples;Min_cycle;Max_cycle;Signal;HPM_P1;HPM_P2
2023/02/21 06:33:29;;;;;;;2.10;1.10;;;;;;;4.68;100.00;98201.80;109452;1277;23017;-44
2023/02/21 06:36:34;;;;;;;2.90;1.20;;;;;;;4.77;100.00;98181.85;111039;1262;22256;-55
2023/02/21 06:52:10;;;;;;;4.10;1.10;;;;;;;5.50;100.00;98194.66;111017;1263;23186;-55
2023/02/21 06:54:55;;;;;;;6.50;1.10;;;;;;;5.58;99.47;98203.89;111084;1264;22927;-47
2023/02/21 06:57:34;;;;;;;3.00;1.10;;;;;;;5.62;98.80;98193.27;110910;1264;22601;-54
2023/02/21 07:00:38;;;;;;;3.60;1.30;;;;;;;5.69;97.46;98198.91;111444;1260;22401;-57
2023/02/21 07:03:19;;;;;;;3.30;0.90;;;;;;;5.74;96.85;98201.77;111158;1260;22878;-57
2023/02/21 07:05:50;;;;;;;4.40;1.30;;;;;;;5.77;97.61;98207.60;110448;1261;22572;-57
2023/02/21 07:08:27;;;;;;;3.10;1.20;;;;;;;5.77;97.37;98210.89;111194;1261;22925;-47
2023/02/21 07:11:20;;;;;;;1.90;0.90;;;;;;;5.77;97.52;98213.32;110222;1261;22950;-46
2023/02/21 07:14:14;;;;;;;3.30;1.30;;;;;;;5.77;98.12;98208.48;110413;1261;22520;-55
2023/02/21 10:12:51;;;;;;;4.80;1.50;;;;;;;7.91;72.63;98181.02;109227;1260;25345;-57
2023/02/21 10:15:50;;;;;;;5.90;1.30;;;;;;;8.01;71.20;98159.97;111277;1260;22529;-46
2023/02/21 10:18:44;;;;;;;6.50;1.80;;;;;;;7.98;71.64;98165.59;111120;1260;23334;-55
2023/02/21 10:21:16;;;;;;;4.90;1.60;;;;;;;8.01;70.86;98167.09;111369;1260;23215;-46
2023/02/21 10:23:45;;;;;;;;;;;;;;;8.05;71.56;98155.00;111953;1260;22388;-45
2023/02/21 10:26:23;;;;;;;4.10;1.10;;;;;;;8.07;69.99;98141.23;112041;1260;23203;-50
2023/02/21 10:28:51;;;;;;;6.70;1.50;;;;;;;8.03;71.10;98147.07;111775;1260;22567;-47
2023/02/21 10:31:40;;;;;;;2.90;0.90;;;;;;;8.01;71.36;98141.20;110874;1260;22504;-59
2023/02/21 10:34:35;;;;;;;5.90;1.40;;;;;;;8.10;73.11;98143.78;111902;1255;22254;-57
2023/02/21 10:37:22;;;;;;;3.30;1.30;;;;;;;8.17;73.00;98143.60;112124;1255;23153;-57
2023/02/21 10:39:52;;;;;;;5.40;1.50;;;;;;;8.16;72.97;98157.86;112030;1255;22515;-46
2023/02/21 10:42:50;;;;;;;5.80;1.60;;;;;;;8.12;73.18;98150.33;111753;1255;22976;-49
2023/02/21 10:45:17;;;;;;;3.60;1.60;;;;;;;8.02;74.86;98158.71;112286;1255;22243;-47
2023/02/21 10:47:59;;;;;;;6.90;1.50;;;;;;;7.96;75.85;98156.08;111902;1255;22207;-46
2023/02/21 10:50:53;;;;;;;5.30;1.70;;;;;;;7.89;76.38;98156.59;111947;1255;22719;-46
2023/02/21 10:53:23;;;;;;;4.90;2.20;;;;;;;7.86;77.31;98144.52;112018;1255;22839;-46
2023/02/21 10:56:19;;;;;;;6.60;1.40;;;;;;;7.86;78.07;98137.92;112173;1255;22461;-58
2023/02/21 10:58:49;;;;;;;3.10;1.30;;;;;;;7.87;78.54;98143.95;111399;1263;22318;-57
2023/02/21 11:01:43;;;;;;;3.50;1.10;;;;;;;7.86;79.04;98138.93;111129;1263;22422;-48
2023/02/21 11:04:19;;;;;;;4.00;1.50;;;;;;;7.85;79.16;98127.53;110936;1263;22429;-60
2023/02/21 11:06:57;;;;;;;4.20;1.30;;;;;;;7.85;78.52;98120.41;111562;1263;22356;-58
2023/02/21 11:09:35;;;;;;;3.40;1.10;;;;;;;7.86;78.00;98137.23;111603;1263;22904;-48
2023/02/21 11:12:18;;;;;;;3.40;1.10;;;;;;;7.86;77.11;98135.14;111629;1263;22408;-59
2023/02/21 11:14:52;;;;;;;8.10;2.30;;;;;;;7.87;76.58;98118.09;111528;1263;23010;-47
2023/02/21 11:17:22;;;;;;;4.20;1.30;;;;;;;7.89;77.28;98109.04;111383;1263;22421;-50
2023/02/21 11:19:57;;;;;;;4.90;2.40;;;;;;;7.91;77.50;98113.14;111317;1263;22293;-47
2023/02/21 11:22:34;;;;;;;3.60;0.70;;;;;;;7.92;78.16;98114.69;111786;1257;23679;-46
2023/02/21 11:25:19;;;;;;;3.20;1.30;;;;;;;7.91;77.85;98104.83;111067;1257;22519;-55
2023/02/21 11:28:12;;;;;;;4.80;1.30;;;;;;;7.90;77.57;98106.08;111837;1257;22898;-56
2023/02/21 11:30:47;;;;;;;3.80;1.20;;;;;;;7.91;78.33;98096.48;111733;1257;22528;-46
2023/02/21 11:33:23;;;;;;;3.70;1.10;;;;;;;8.14;76.63;98114.85;111703;1256;22524;-57
2023/02/21 11:35:51;;;;;;;2.60;0.90;;;;;;;8.43;76.31;98106.14;111700;1249;23428;-56
2023/02/21 11:38:58;;;;;;;3.60;0.90;;;;;;;8.86;73.37;98093.34;112609;1249;22392;-57
2023/02/21 11:41:32;;;;;;;4.20;1.10;;;;;;;9.56;70.04;98084.52;111981;1257;22431;-57
2023/02/21 11:43:58;;;;;;;3.30;1.00;;;;;;;10.05;64.33;98099.67;111917;1257;22301;-57
2023/02/21 11:46:35;;;;;;;2.00;1.00;;;;;;;10.36;60.78;98096.40;112173;1257;22867;-48
2023/02/21 11:49:19;;;;;;;4.60;1.00;;;;;;;10.47;58.91;98098.11;111578;1250;22314;-45
